Aviation Forecast PDF Print E-mail

 
met_logo

NATIONAL METEOROLOGICAL SERVICE OF BELIZE

Area Forecast for the Country of Belize


For the period from:

1200  05  MARCH  2015

to

2400  05 MARCH  2015

All Heights in the forecast are above sea level. PS= Positive, MS= Minus. All times are UTC.


A.

SPECIAL FEATURES of the METEOROLOGICAL SITUATION

 MAINLY FAIR CONDITIONS CONTINUE ACROSS THE AREA TODAY AND THEN MOISTURE INCREASES TONIGHT....

B.

HEIGHT (Ft)

WIND (True Degrees and Knots)

TEMPERATURE (°C)

Surface

11010

PS30-33

2,000

11025

PS21

5,000

11020

PS17

10,000

13015

PS09


C.

CLOUDS (Amount, Type, Ceiling and Top(optional))

 SCT/BKN CU BASES 1,500-2,500FT. TOPS 6,000-8,000FT.

 SCT SCT BASES LAYERED 3,500-4,500FT.


D.

SURFACE VISIBILITY:  GREATER THAN 10KM. REDUCED TO 4-5KM IN SHOWERS AND 500M IN HILL FOG. 


E.

WEATHER:  MOSTLY SUNNY AND WARM WITH LITTLE OR NO RAINFALL. EARLY MORNING HILL FOG INLAND.


Remarks, Warnings, Turbulence

Barometric Changes

LOW CLOUDS COVERING HILLS

MOD TURB NEAR SFC

FALLING

G.

OUTLOOK:

TO 1200 06 MARCH

CLOUDY WITH A FEW SHOWERS AND POSSIBLE ISOLATED THUNDERSTORMS MAINLY ALONG THE COAST. 

H.

TAF  MZBZ

051115Z 0512/0612 11010KT 9999 SCT023 BECMG 0521/0523 08010KT PROB40 TEMPO 0602/0612 4000 SHRA BKN015 PROB30 TEMPO 0604/0610 2000 TSRA SCT010CB BKN035=

I.

Meteorological Office:

BELIZE 

Issued at:

1150 05 MARCH 2015

Forecaster:

R. Gordon